KLM29D EHAM-EKCH
Flight info
| Callsign | KLM29D |
|---|---|
| Flight time | 0h 55m |
| Altitude | 37000 |
| Route | ANDIK N873 JUIST DCT DOSUR P729 TUDLO |
| Aircraft | A20N/M-SDE2E3FGHIRWXY/LB1 |
Departure
| Time | 2026-04-30 18:13 |
|---|---|
| Airport | Amsterdam Airport Schiphol (EHAM) |
Arrival
| Time | 2026-04-30 19:09 |
|---|---|
| Airport | Copenhagen Kastrup Airport (EKCH) |
| Time | Latitude | Longitude | Altitude | Speed | Heading |
|---|---|---|---|---|---|
| 2026-04-30 17:39 | 52.30897 | 4.77367 | -2 ft | 0 kts | 3° |
| 2026-04-30 18:00 | 52.30875 | 4.77365 | -2 ft | 1 kts | 3° |
| 2026-04-30 18:00 | 52.30840 | 4.77342 | -2 ft | 2 kts | 76° |
| 2026-04-30 18:01 | 52.30839 | 4.77328 | -2 ft | 0 kts | 91° |
| 2026-04-30 18:05 | 52.30839 | 4.77546 | -3 ft | 16 kts | 80° |
| 2026-04-30 18:06 | 52.31348 | 4.77652 | -2 ft | 22 kts | 4° |
| 2026-04-30 18:07 | 52.31558 | 4.76744 | -6 ft | 21 kts | 268° |
| 2026-04-30 18:08 | 52.31535 | 4.76023 | 1 ft | 21 kts | 269° |
| 2026-04-30 18:09 | 52.31502 | 4.75140 | -6 ft | 20 kts | 267° |
| 2026-04-30 18:10 | 52.31572 | 4.74668 | -1 ft | 0 kts | 5° |
| 2026-04-30 18:11 | 52.31667 | 4.74719 | 0 ft | 7 kts | 94° |
| 2026-04-30 18:11 | 52.31668 | 4.74754 | -1 ft | 2 kts | 87° |
| 2026-04-30 18:12 | 52.31764 | 4.77767 | 41 ft | 157 kts | 88° |
| 2026-04-30 18:13 | 52.31974 | 4.82008 | 282 ft | 217 kts | 85° |
| 2026-04-30 18:13 | 52.32428 | 4.88865 | 2960 ft | 235 kts | 80° |
| 2026-04-30 18:14 | 52.34435 | 4.94611 | 5144 ft | 259 kts | 59° |
| 2026-04-30 18:15 | 52.37661 | 5.01915 | 8044 ft | 270 kts | 59° |
| 2026-04-30 18:15 | 52.41026 | 5.09561 | 10714 ft | 288 kts | 52° |
| 2026-04-30 18:16 | 52.44153 | 5.14494 | 11444 ft | 334 kts | 46° |
| 2026-04-30 18:16 | 52.47638 | 5.19710 | 13056 ft | 342 kts | 46° |
| 2026-04-30 18:17 | 52.49390 | 5.22387 | 13869 ft | 347 kts | 47° |
| 2026-04-30 18:17 | 52.51159 | 5.25118 | 14631 ft | 351 kts | 47° |
| 2026-04-30 18:17 | 52.54126 | 5.29734 | 15841 ft | 357 kts | 47° |
| 2026-04-30 18:18 | 52.55937 | 5.32558 | 16552 ft | 361 kts | 47° |
| 2026-04-30 18:18 | 52.57766 | 5.35415 | 17255 ft | 365 kts | 47° |
| 2026-04-30 18:18 | 52.59624 | 5.38319 | 17966 ft | 369 kts | 47° |
| 2026-04-30 18:18 | 52.61493 | 5.41243 | 18659 ft | 373 kts | 47° |
| 2026-04-30 18:19 | 52.63381 | 5.44201 | 19279 ft | 376 kts | 47° |
| 2026-04-30 18:19 | 52.65199 | 5.47309 | 19881 ft | 378 kts | 50° |
| 2026-04-30 18:19 | 52.67004 | 5.50491 | 20474 ft | 382 kts | 50° |
| 2026-04-30 18:19 | 52.68826 | 5.53700 | 21077 ft | 385 kts | 50° |
| 2026-04-30 18:20 | 52.70661 | 5.56946 | 21683 ft | 388 kts | 50° |
| 2026-04-30 18:20 | 52.72502 | 5.60220 | 22267 ft | 392 kts | 50° |
| 2026-04-30 18:20 | 52.74362 | 5.63538 | 22854 ft | 395 kts | 50° |
| 2026-04-30 18:20 | 52.76237 | 5.66892 | 23439 ft | 399 kts | 50° |
| 2026-04-30 18:21 | 52.78124 | 5.70271 | 24002 ft | 402 kts | 49° |
| 2026-04-30 18:21 | 52.80027 | 5.73685 | 24475 ft | 405 kts | 49° |
| 2026-04-30 18:21 | 52.81941 | 5.77126 | 24976 ft | 408 kts | 49° |
| 2026-04-30 18:21 | 52.83865 | 5.80591 | 25455 ft | 410 kts | 49° |
| 2026-04-30 18:22 | 52.85800 | 5.84083 | 25916 ft | 413 kts | 49° |
| 2026-04-30 18:22 | 52.89683 | 5.91103 | 26825 ft | 418 kts | 49° |
| 2026-04-30 18:22 | 52.91653 | 5.94671 | 27264 ft | 421 kts | 49° |
| 2026-04-30 18:23 | 52.93638 | 5.98274 | 27693 ft | 424 kts | 49° |
| 2026-04-30 18:23 | 52.95630 | 6.01896 | 28109 ft | 426 kts | 49° |
| 2026-04-30 18:23 | 52.97633 | 6.05543 | 28500 ft | 429 kts | 49° |
| 2026-04-30 18:23 | 52.99647 | 6.09217 | 28884 ft | 431 kts | 49° |
| 2026-04-30 18:24 | 53.03711 | 6.16642 | 29646 ft | 436 kts | 49° |
| 2026-04-30 18:24 | 53.05755 | 6.20383 | 30011 ft | 439 kts | 49° |
| 2026-04-30 18:24 | 53.07809 | 6.24151 | 30352 ft | 441 kts | 49° |
| 2026-04-30 18:25 | 53.09871 | 6.27937 | 30678 ft | 443 kts | 49° |
| 2026-04-30 18:25 | 53.14037 | 6.35608 | 31304 ft | 447 kts | 48° |
| 2026-04-30 18:25 | 53.16129 | 6.39467 | 31665 ft | 448 kts | 48° |
| 2026-04-30 18:26 | 53.20296 | 6.47175 | 32528 ft | 445 kts | 48° |
| 2026-04-30 18:26 | 53.22364 | 6.51010 | 32938 ft | 444 kts | 48° |
| 2026-04-30 18:26 | 53.24429 | 6.54844 | 33362 ft | 443 kts | 48° |
| 2026-04-30 18:27 | 53.28510 | 6.62441 | 34146 ft | 441 kts | 48° |
| 2026-04-30 18:27 | 53.30551 | 6.66249 | 34534 ft | 439 kts | 48° |
| 2026-04-30 18:28 | 53.34616 | 6.73849 | 35120 ft | 438 kts | 48° |
| 2026-04-30 18:28 | 53.36647 | 6.77655 | 35437 ft | 437 kts | 48° |
| 2026-04-30 18:28 | 53.40691 | 6.85251 | 35991 ft | 436 kts | 48° |
| 2026-04-30 18:29 | 53.42705 | 6.89045 | 36281 ft | 435 kts | 48° |
| 2026-04-30 18:29 | 53.48731 | 7.00427 | 37001 ft | 434 kts | 48° |
| 2026-04-30 18:30 | 53.52738 | 7.08023 | 37398 ft | 436 kts | 48° |
| 2026-04-30 18:30 | 53.56773 | 7.15696 | 37404 ft | 445 kts | 48° |
| 2026-04-30 18:31 | 53.62992 | 7.27573 | 37417 ft | 455 kts | 48° |
| 2026-04-30 18:32 | 53.69295 | 7.39667 | 37409 ft | 460 kts | 48° |
| 2026-04-30 18:33 | 53.75640 | 7.51901 | 37414 ft | 463 kts | 48° |
| 2026-04-30 18:33 | 53.81998 | 7.64222 | 37422 ft | 464 kts | 48° |
| 2026-04-30 18:34 | 53.88366 | 7.76624 | 37433 ft | 465 kts | 48° |
| 2026-04-30 18:35 | 53.92613 | 7.84930 | 37437 ft | 465 kts | 48° |
| 2026-04-30 18:35 | 53.96850 | 7.93245 | 37437 ft | 466 kts | 48° |
| 2026-04-30 18:36 | 54.03205 | 8.05770 | 37436 ft | 466 kts | 48° |
| 2026-04-30 18:37 | 54.09552 | 8.18344 | 37439 ft | 466 kts | 48° |
| 2026-04-30 18:37 | 54.13679 | 8.26558 | 37434 ft | 444 kts | 48° |
| 2026-04-30 18:37 | 54.15648 | 8.30489 | 37436 ft | 428 kts | 48° |
| 2026-04-30 18:38 | 54.17568 | 8.34325 | 37439 ft | 426 kts | 48° |
| 2026-04-30 18:38 | 54.21461 | 8.42115 | 37438 ft | 435 kts | 48° |
| 2026-04-30 18:39 | 54.25382 | 8.49990 | 37440 ft | 434 kts | 48° |
| 2026-04-30 18:39 | 54.29287 | 8.57859 | 37438 ft | 434 kts | 48° |
| 2026-04-30 18:40 | 54.33185 | 8.65740 | 37440 ft | 433 kts | 48° |
| 2026-04-30 18:40 | 54.37081 | 8.73641 | 37444 ft | 434 kts | 48° |
| 2026-04-30 18:41 | 54.40967 | 8.81548 | 37439 ft | 433 kts | 49° |
| 2026-04-30 18:41 | 54.44850 | 8.89475 | 37439 ft | 433 kts | 49° |
| 2026-04-30 18:42 | 54.48700 | 8.97360 | 37437 ft | 433 kts | 49° |
| 2026-04-30 18:42 | 54.54505 | 9.09297 | 37436 ft | 433 kts | 49° |
| 2026-04-30 18:45 | 54.75698 | 9.53373 | 37443 ft | 434 kts | 49° |
| 2026-04-30 18:46 | 54.79541 | 9.61451 | 37451 ft | 434 kts | 49° |
| 2026-04-30 18:46 | 54.82872 | 9.70144 | 37449 ft | 437 kts | 67° |
| 2026-04-30 18:46 | 54.83681 | 9.75228 | 37447 ft | 440 kts | 80° |
| 2026-04-30 18:47 | 54.83807 | 9.80530 | 37441 ft | 442 kts | 93° |
| 2026-04-30 18:47 | 54.82827 | 9.91092 | 37444 ft | 444 kts | 99° |
| 2026-04-30 18:48 | 54.82320 | 10.01665 | 37439 ft | 439 kts | 79° |
| 2026-04-30 18:48 | 54.84003 | 10.11797 | 37452 ft | 438 kts | 69° |
| 2026-04-30 18:49 | 54.85987 | 10.21779 | 37452 ft | 437 kts | 69° |
| 2026-04-30 18:49 | 54.88498 | 10.31218 | 37329 ft | 434 kts | 52° |
| 2026-04-30 18:49 | 54.90339 | 10.35392 | 36956 ft | 434 kts | 50° |
| 2026-04-30 18:50 | 54.92206 | 10.39524 | 36392 ft | 434 kts | 50° |
| 2026-04-30 18:50 | 54.94069 | 10.43653 | 35838 ft | 434 kts | 50° |
| 2026-04-30 18:50 | 54.95929 | 10.47786 | 35285 ft | 433 kts | 50° |
| 2026-04-30 18:50 | 54.97784 | 10.51922 | 34656 ft | 434 kts | 50° |
| 2026-04-30 18:51 | 54.99641 | 10.56080 | 33952 ft | 433 kts | 50° |
| 2026-04-30 18:51 | 55.01476 | 10.60207 | 33257 ft | 431 kts | 50° |
| 2026-04-30 18:51 | 55.03320 | 10.64381 | 32563 ft | 436 kts | 50° |
| 2026-04-30 18:51 | 55.05171 | 10.68594 | 31895 ft | 438 kts | 50° |
| 2026-04-30 18:52 | 55.07017 | 10.72827 | 31241 ft | 438 kts | 50° |
| 2026-04-30 18:52 | 55.08848 | 10.77059 | 30596 ft | 436 kts | 50° |
| 2026-04-30 18:52 | 55.10657 | 10.81271 | 29820 ft | 431 kts | 50° |
| 2026-04-30 18:52 | 55.12440 | 10.85428 | 29031 ft | 424 kts | 50° |
| 2026-04-30 18:53 | 55.14200 | 10.89525 | 28278 ft | 417 kts | 50° |
| 2026-04-30 18:53 | 55.15935 | 10.93553 | 27543 ft | 412 kts | 50° |
| 2026-04-30 18:53 | 55.17649 | 10.97524 | 26820 ft | 407 kts | 50° |
| 2026-04-30 18:53 | 55.19347 | 11.01460 | 26115 ft | 403 kts | 52° |
| 2026-04-30 18:54 | 55.20754 | 11.05672 | 25437 ft | 402 kts | 64° |
| 2026-04-30 18:54 | 55.21735 | 11.10242 | 24709 ft | 399 kts | 67° |
| 2026-04-30 18:54 | 55.22681 | 11.14844 | 23403 ft | 406 kts | 68° |
| 2026-04-30 18:54 | 55.23625 | 11.19525 | 22198 ft | 407 kts | 68° |
| 2026-04-30 18:55 | 55.24532 | 11.24116 | 21240 ft | 401 kts | 69° |
| 2026-04-30 18:55 | 55.26311 | 11.33234 | 19422 ft | 390 kts | 69° |
| 2026-04-30 18:55 | 55.27189 | 11.37759 | 18517 ft | 384 kts | 69° |
| 2026-04-30 18:56 | 55.28881 | 11.46494 | 16656 ft | 372 kts | 69° |
| 2026-04-30 18:56 | 55.29696 | 11.50707 | 15775 ft | 367 kts | 70° |
| 2026-04-30 18:56 | 55.30507 | 11.54911 | 14909 ft | 361 kts | 70° |
| 2026-04-30 18:57 | 55.32093 | 11.63161 | 13100 ft | 352 kts | 70° |
| 2026-04-30 18:57 | 55.32871 | 11.67224 | 12147 ft | 350 kts | 70° |
| 2026-04-30 18:57 | 55.33641 | 11.71262 | 11231 ft | 347 kts | 70° |
| 2026-04-30 18:58 | 55.35139 | 11.79141 | 10119 ft | 323 kts | 70° |
| 2026-04-30 18:58 | 55.35826 | 11.82773 | 9905 ft | 303 kts | 70° |
| 2026-04-30 18:58 | 55.36468 | 11.86172 | 9692 ft | 284 kts | 70° |
| 2026-04-30 18:59 | 55.37690 | 11.92643 | 8588 ft | 276 kts | 70° |
| 2026-04-30 19:00 | 55.39274 | 12.01053 | 7172 ft | 270 kts | 70° |
| 2026-04-30 19:00 | 55.39860 | 12.04173 | 6798 ft | 268 kts | 71° |
| 2026-04-30 19:00 | 55.41020 | 12.10372 | 5966 ft | 266 kts | 71° |
| 2026-04-30 19:01 | 55.42302 | 12.17263 | 5640 ft | 241 kts | 71° |
| 2026-04-30 19:01 | 55.42648 | 12.19127 | 5575 ft | 234 kts | 71° |
| 2026-04-30 19:02 | 55.43633 | 12.24440 | 5059 ft | 228 kts | 71° |
| 2026-04-30 19:02 | 55.44622 | 12.29785 | 4392 ft | 227 kts | 70° |
| 2026-04-30 19:03 | 55.45542 | 12.34789 | 4156 ft | 202 kts | 70° |
| 2026-04-30 19:03 | 55.46334 | 12.39109 | 3429 ft | 181 kts | 69° |
| 2026-04-30 19:04 | 55.47729 | 12.42629 | 2998 ft | 165 kts | 41° |
| 2026-04-30 19:04 | 55.49381 | 12.45201 | 2591 ft | 158 kts | 37° |
| 2026-04-30 19:05 | 55.51030 | 12.47739 | 2199 ft | 157 kts | 36° |
| 2026-04-30 19:05 | 55.52504 | 12.50013 | 1792 ft | 127 kts | 35° |
| 2026-04-30 19:06 | 55.53862 | 12.52099 | 1463 ft | 128 kts | 35° |
| 2026-04-30 19:06 | 55.54540 | 12.53142 | 1290 ft | 130 kts | 36° |
| 2026-04-30 19:06 | 55.55895 | 12.55232 | 934 ft | 129 kts | 36° |
| 2026-04-30 19:07 | 55.57246 | 12.57316 | 582 ft | 129 kts | 38° |
| 2026-04-30 19:07 | 55.57905 | 12.58334 | 399 ft | 127 kts | 39° |
| 2026-04-30 19:08 | 55.59226 | 12.60374 | 60 ft | 125 kts | 38° |
| 2026-04-30 19:08 | 55.60338 | 12.62058 | 19 ft | 86 kts | 40° |
| 2026-04-30 19:08 | 55.60744 | 12.62689 | 29 ft | 66 kts | 39° |
| 2026-04-30 19:09 | 55.61067 | 12.62904 | 22 ft | 11 kts | 12° |
| 2026-04-30 19:09 | 55.61137 | 12.62945 | 29 ft | 10 kts | 31° |
| 2026-04-30 19:09 | 55.61198 | 12.63027 | 27 ft | 12 kts | 42° |
| 2026-04-30 19:10 | 55.61346 | 12.63260 | 32 ft | 17 kts | 41° |
| 2026-04-30 19:10 | 55.61560 | 12.63588 | 23 ft | 23 kts | 42° |
| 2026-04-30 19:11 | 55.61680 | 12.63779 | 24 ft | 24 kts | 41° |
| 2026-04-30 19:11 | 55.61949 | 12.64140 | 23 ft | 27 kts | 27° |
| 2026-04-30 19:11 | 55.62093 | 12.64258 | 18 ft | 17 kts | 24° |
| 2026-04-30 19:12 | 55.62148 | 12.64302 | 16 ft | 0 kts | 25° |
| 2026-04-30 19:13 | 55.62209 | 12.64352 | 15 ft | 9 kts | 25° |
| 2026-04-30 19:13 | 55.62333 | 12.64423 | 21 ft | 11 kts | 15° |
| 2026-04-30 19:13 | 55.62414 | 12.64462 | 19 ft | 12 kts | 15° |
| 2026-04-30 19:14 | 55.62483 | 12.64482 | 20 ft | 9 kts | 348° |
| 2026-04-30 19:14 | 55.62526 | 12.64398 | 22 ft | 10 kts | 305° |
| 2026-04-30 19:14 | 55.62564 | 12.64294 | 24 ft | 10 kts | 303° |
| 2026-04-30 19:14 | 55.62622 | 12.64278 | 22 ft | 10 kts | 30° |
| 2026-04-30 19:15 | 55.62693 | 12.64338 | 23 ft | 11 kts | 21° |
| 2026-04-30 19:15 | 55.62735 | 12.64272 | 21 ft | 0 kts | 299° |